Time;durP1;ratioP1;P1;durP2;ratioP2;P2;SDS_P1;SDS_P2;PMS_P1;PMS_P2;Temp;Humidity;BMP_temperature;BMP_pressure;BME280_temperature;BME280_humidity;BME280_pressure;Samples;Min_cycle;Max_cycle;Signal;HPM_P1;HPM_P2
2021/01/06 00:00:44;;;;;;;13.32;5.75;;;2.70;99.90;;;;;;4994343;28;20030;-60
2021/01/06 00:03:21;;;;;;;12.82;5.70;;;2.70;99.90;;;;;;4994546;28;20018;-60
2021/01/06 00:05:55;;;;;;;11.25;5.25;;;2.70;99.90;;;;;;4994128;28;20043;-60
2021/01/06 00:08:23;;;;;;;11.95;6.57;;;2.70;99.90;;;;;;4994466;28;20026;-61
2021/01/06 00:10:51;;;;;;;12.65;5.70;;;2.80;99.90;;;;;;4994096;28;20073;-60
2021/01/06 00:13:18;;;;;;;15.65;6.53;;;2.80;99.90;;;;;;4994396;28;20058;-61
2021/01/06 00:15:45;;;;;;;13.13;4.70;;;2.70;99.90;;;;;;4993848;28;20130;-60
2021/01/06 00:18:14;;;;;;;11.63;6.05;;;2.70;99.90;;;;;;4994061;28;20038;-61
2021/01/06 00:20:40;;;;;;;12.80;5.63;;;2.70;99.90;;;;;;4994061;28;20069;-61
2021/01/06 00:23:06;;;;;;;12.55;5.72;;;2.70;99.90;;;;;;4994046;28;20030;-61
2021/01/06 00:25:34;;;;;;;13.90;6.10;;;2.70;99.90;;;;;;4993668;28;20108;-61
2021/01/06 00:28:04;;;;;;;11.30;5.50;;;2.60;99.90;;;;;;4993742;28;20030;-61
2021/01/06 00:30:39;;;;;;;11.55;5.70;;;2.70;99.90;;;;;;4994094;28;20042;-61
2021/01/06 00:33:13;;;;;;;12.10;5.43;;;2.70;99.90;;;;;;4993809;28;20117;-61
2021/01/06 00:35:39;;;;;;;11.70;5.35;;;2.60;99.90;;;;;;4993690;28;20030;-61
2021/01/06 00:38:05;;;;;;;12.05;5.88;;;2.70;99.90;;;;;;4993555;28;20046;-60
2021/01/06 00:40:35;;;;;;;10.60;5.30;;;2.70;99.90;;;;;;4993616;28;20092;-59
2021/01/06 00:43:06;;;;;;;11.10;5.43;;;2.80;99.90;;;;;;4994030;28;20113;-60
2021/01/06 00:45:33;;;;;;;12.48;5.75;;;2.80;99.90;;;;;;4993588;28;20073;-60
2021/01/06 00:47:59;;;;;;;20.33;8.77;;;2.60;99.90;;;;;;4993317;28;20085;-60
2021/01/06 00:50:28;;;;;;;15.15;6.47;;;2.70;99.90;;;;;;4993526;28;20394;-60
2021/01/06 00:53:06;;;;;;;9.98;5.28;;;2.70;99.90;;;;;;4993514;28;20055;-60
2021/01/06 00:55:32;;;;;;;10.55;5.72;;;2.70;99.90;;;;;;4993490;28;20038;-60
2021/01/06 00:57:58;;;;;;;12.40;5.53;;;2.70;99.90;;;;;;4993091;28;20034;-61
2021/01/06 01:00:28;;;;;;;12.95;5.78;;;2.70;99.90;;;;;;4993241;28;20038;-60
2021/01/06 01:02:55;;;;;;;12.40;5.90;;;2.70;99.90;;;;;;4993143;28;20229;-60
2021/01/06 01:05:29;;;;;;;11.45;5.70;;;2.60;99.90;;;;;;4993482;28;20030;-60
2021/01/06 01:07:56;;;;;;;13.35;6.00;;;2.70;99.90;;;;;;4993505;28;20084;-60
2021/01/06 01:10:43;;;;;;;11.15;5.07;;;2.70;99.90;;;;;;4992298;28;20022;-60
2021/01/06 01:13:23;;;;;;;11.07;5.70;;;2.70;99.90;;;;;;4993229;28;20101;-60
2021/01/06 01:15:58;;;;;;;12.23;5.63;;;2.60;99.90;;;;;;4993032;28;20030;-61
2021/01/06 01:18:28;;;;;;;12.20;5.22;;;2.60;99.90;;;;;;4992970;28;20038;-60
2021/01/06 01:20:57;;;;;;;12.23;5.45;;;2.60;99.90;;;;;;4993039;28;20080;-61
2021/01/06 01:23:28;;;;;;;10.20;5.22;;;2.60;99.90;;;;;;4992963;28;20033;-61
2021/01/06 01:25:56;;;;;;;11.20;5.38;;;2.60;99.90;;;;;;4992625;28;20050;-61
2021/01/06 01:28:24;;;;;;;10.50;5.43;;;2.60;99.90;;;;;;4992881;28;20030;-60
2021/01/06 01:30:51;;;;;;;12.75;5.50;;;2.60;99.90;;;;;;4992737;28;20030;-60
2021/01/06 01:33:22;;;;;;;14.82;6.40;;;2.60;99.90;;;;;;4993159;28;20026;-60
2021/01/06 01:35:49;;;;;;;12.32;5.88;;;2.70;99.90;;;;;;4991578;28;20041;-60
2021/01/06 01:38:19;;;;;;;9.95;5.30;;;2.50;99.90;;;;;;4992813;28;20046;-61
2021/01/06 01:40:45;;;;;;;11.25;5.97;;;2.60;99.90;;;;;;4992684;28;20103;-60
2021/01/06 01:43:20;;;;;;;12.65;6.07;;;2.50;99.90;;;;;;4993020;28;20037;-60
2021/01/06 01:45:46;;;;;;;10.32;5.13;;;2.60;99.90;;;;;;4992495;28;20121;-60
2021/01/06 01:48:39;;;;;;;13.02;6.15;;;2.60;99.90;;;;;;4992554;28;20137;-60
2021/01/06 01:51:33;;;;;;;13.43;5.85;;;2.50;99.90;;;;;;4992582;28;20038;-60
2021/01/06 01:54:13;;;;;;;12.00;5.80;;;2.50;99.90;;;;;;4992753;28;20117;-60
2021/01/06 01:57:15;;;;;;;14.07;6.25;;;2.60;99.90;;;;;;4991486;28;20030;-61
2021/01/06 01:59:52;;;;;;;13.63;6.13;;;2.60;99.90;;;;;;4992276;28;20053;-60
2021/01/06 02:02:36;;;;;;;15.02;6.38;;;2.60;99.90;;;;;;4991433;28;20026;-60
2021/01/06 02:05:21;;;;;;;12.98;5.97;;;2.60;99.90;;;;;;4992402;28;20077;-60
2021/01/06 02:08:01;;;;;;;14.52;6.22;;;2.50;99.90;;;;;;4991247;28;20038;-60
2021/01/06 02:10:38;;;;;;;13.90;6.38;;;2.40;99.90;;;;;;4991439;28;20058;-60
2021/01/06 02:13:33;;;;;;;14.68;6.25;;;2.50;99.90;;;;;;4992649;28;20048;-60
2021/01/06 02:16:18;;;;;;;13.52;5.82;;;2.50;99.90;;;;;;4992072;28;20042;-60
2021/01/06 02:18:44;;;;;;;17.83;6.65;;;2.60;99.90;;;;;;4991529;28;20045;-60
2021/01/06 02:21:17;;;;;;;12.68;6.18;;;2.60;99.90;;;;;;4992356;28;20039;-60
2021/01/06 02:23:50;;;;;;;12.15;6.00;;;2.60;99.90;;;;;;4979370;28;20026;-60
2021/01/06 02:26:17;;;;;;;13.38;6.03;;;2.60;99.90;;;;;;4994773;28;20054;-60
2021/01/06 02:28:45;;;;;;;15.73;6.82;;;2.60;99.90;;;;;;4996146;28;20034;-60
2021/01/06 02:31:11;;;;;;;13.68;6.32;;;2.70;99.90;;;;;;4996681;28;20038;-60
2021/01/06 02:33:38;;;;;;;17.45;6.93;;;2.60;99.90;;;;;;4996353;28;20033;-61
2021/01/06 02:36:05;;;;;;;13.57;8.25;;;2.60;99.90;;;;;;4995003;28;20096;-60
2021/01/06 02:38:32;;;;;;;13.30;6.88;;;2.50;99.90;;;;;;5011105;28;20046;-60
2021/01/06 02:40:59;;;;;;;13.15;6.43;;;2.50;99.90;;;;;;4995738;28;20030;-60
2021/01/06 02:43:27;;;;;;;18.20;7.30;;;2.50;99.90;;;;;;4994721;28;20038;-60
2021/01/06 02:45:55;;;;;;;15.55;7.07;;;2.40;99.90;;;;;;4994386;28;20068;-60
2021/01/06 02:48:21;;;;;;;15.60;6.53;;;2.50;99.90;;;;;;4995290;28;20035;-60
2021/01/06 02:50:54;;;;;;;15.70;7.25;;;2.40;99.90;;;;;;4993620;28;20034;-60
2021/01/06 02:53:32;;;;;;;17.00;8.43;;;2.50;99.90;;;;;;4994428;28;20028;-60
2021/01/06 02:55:59;;;;;;;15.90;6.88;;;2.50;99.90;;;;;;4994516;28;20041;-60
2021/01/06 02:58:27;;;;;;;11.75;6.53;;;2.60;99.90;;;;;;4994392;28;20027;-60
2021/01/06 03:00:53;;;;;;;23.08;11.55;;;2.60;99.90;;;;;;4995711;28;20034;-60
2021/01/06 03:03:25;;;;;;;15.32;7.75;;;2.60;99.90;;;;;;4994215;28;20034;-60
2021/01/06 03:06:32;;;;;;;15.13;6.63;;;2.60;99.90;;;;;;4994439;28;20034;-60
2021/01/06 03:09:00;;;;;;;16.63;7.10;;;2.60;99.90;;;;;;4994863;28;20077;-60
2021/01/06 03:11:27;;;;;;;16.73;7.35;;;2.70;99.90;;;;;;4995386;28;20042;-60
2021/01/06 03:13:53;;;;;;;14.27;6.97;;;2.60;99.90;;;;;;4995276;28;20061;-60
2021/01/06 03:16:19;;;;;;;13.93;6.78;;;2.50;99.90;;;;;;4995571;28;20040;-60
2021/01/06 03:18:47;;;;;;;14.57;7.45;;;2.50;99.90;;;;;;4995311;28;20100;-60
2021/01/06 03:21:13;;;;;;;14.43;6.72;;;2.50;99.90;;;;;;4995090;28;20058;-60
2021/01/06 03:23:47;;;;;;;12.38;6.78;;;2.60;99.90;;;;;;4994181;28;20031;-60
2021/01/06 03:26:19;;;;;;;13.10;6.72;;;2.60;99.90;;;;;;4993543;28;20108;-60
2021/01/06 03:28:46;;;;;;;14.43;7.60;;;2.60;99.90;;;;;;4994202;28;20122;-60
2021/01/06 03:31:23;;;;;;;18.17;7.53;;;2.70;99.90;;;;;;4993766;28;20034;-60
2021/01/06 03:33:59;;;;;;;14.10;7.45;;;2.70;99.90;;;;;;4993034;28;20089;-60
2021/01/06 03:36:35;;;;;;;12.25;6.63;;;2.80;99.90;;;;;;4993942;28;20037;-60
2021/01/06 03:39:10;;;;;;;12.77;6.68;;;2.70;99.90;;;;;;4993657;28;20039;-60
2021/01/06 03:41:36;;;;;;;11.55;5.88;;;2.60;99.90;;;;;;4993682;28;20034;-60
2021/01/06 03:44:11;;;;;;;12.90;6.35;;;2.60;99.90;;;;;;4993399;28;20109;-60
2021/01/06 03:46:54;;;;;;;13.43;6.25;;;2.50;99.90;;;;;;4993562;28;20085;-60
2021/01/06 03:49:48;;;;;;;13.18;6.68;;;2.60;99.90;;;;;;4993572;28;20034;-60
2021/01/06 03:53:11;;;;;;;13.15;7.13;;;2.70;99.90;;;;;;4994779;28;20125;-60
2021/01/06 03:55:59;;;;;;;11.40;5.88;;;2.60;99.90;;;;;;4992200;28;20110;-60
2021/01/06 03:58:53;;;;;;;13.35;6.82;;;2.50;99.90;;;;;;4993551;28;20034;-60
2021/01/06 04:01:59;;;;;;;15.55;7.07;;;2.50;99.90;;;;;;4994767;28;20041;-60
2021/01/06 04:04:46;;;;;;;13.07;5.97;;;2.50;99.90;;;;;;4993234;28;20057;-60
2021/01/06 04:07:39;;;;;;;14.98;7.80;;;2.50;99.90;;;;;;4994519;28;20038;-60
2021/01/06 04:10:11;;;;;;;12.15;6.32;;;2.40;99.90;;;;;;4994107;28;20034;-60
2021/01/06 04:12:39;;;;;;;15.48;6.78;;;2.40;99.90;;;;;;4994161;28;20045;-60
2021/01/06 04:15:08;;;;;;;11.00;6.30;;;2.50;99.90;;;;;;4994280;28;20042;-60
2021/01/06 04:17:47;;;;;;;14.70;7.40;;;2.40;99.90;;;;;;4994058;28;20109;-60
2021/01/06 04:20:36;;;;;;;12.75;6.40;;;2.50;99.90;;;;;;4994066;28;20146;-60
2021/01/06 04:23:12;;;;;;;12.60;6.35;;;2.50;99.90;;;;;;4994009;28;20026;-60
2021/01/06 04:25:47;;;;;;;12.98;7.47;;;2.50;99.90;;;;;;4992625;28;20121;-60
2021/01/06 04:28:24;;;;;;;12.77;5.80;;;2.50;99.90;;;;;;4993776;28;20034;-59
2021/01/06 04:31:10;;;;;;;11.75;5.72;;;2.60;99.90;;;;;;4993943;28;20120;-60
2021/01/06 04:33:44;;;;;;;12.65;6.82;;;2.60;99.90;;;;;;4994122;28;20033;-60
2021/01/06 04:36:21;;;;;;;11.93;5.97;;;2.50;99.90;;;;;;4993999;28;20101;-60
2021/01/06 04:38:52;;;;;;;13.57;6.60;;;2.40;99.90;;;;;;4992838;28;20037;-60
2021/01/06 04:41:38;;;;;;;10.10;5.77;;;2.50;99.90;;;;;;4993696;28;20085;-60
2021/01/06 04:44:28;;;;;;;12.95;6.30;;;2.60;99.90;;;;;;4992684;28;20066;-60
2021/01/06 04:47:22;;;;;;;11.32;5.55;;;2.50;99.90;;;;;;4974329;28;20037;-60
2021/01/06 04:50:23;;;;;;;11.68;5.97;;;2.50;99.90;;;;;;5009291;28;20034;-60
2021/01/06 04:53:26;;;;;;;11.73;5.27;;;2.50;99.90;;;;;;5002945;28;20033;-60
2021/01/06 04:56:13;;;;;;;11.52;5.05;;;2.50;99.90;;;;;;5013140;28;20114;-60
2021/01/06 04:59:05;;;;;;;12.73;5.82;;;2.50;99.90;;;;;;5012882;28;20026;-60
2021/01/06 05:02:02;;;;;;;12.98;5.97;;;2.50;99.90;;;;;;4973772;28;20038;-58
2021/01/06 05:05:09;;;;;;;10.45;5.22;;;2.50;99.90;;;;;;4993054;28;20026;-56
2021/01/06 05:08:15;;;;;;;12.20;5.70;;;2.70;99.90;;;;;;4991954;28;20084;-56
2021/01/06 05:11:06;;;;;;;11.45;5.13;;;2.80;99.90;;;;;;4992479;28;20058;-58
2021/01/06 05:14:19;;;;;;;12.18;6.03;;;2.80;99.90;;;;;;4993267;28;20041;-57
2021/01/06 05:16:50;;;;;;;10.07;4.35;;;2.70;99.90;;;;;;4992741;28;20054;-56
2021/01/06 05:19:25;;;;;;;11.53;4.77;;;2.80;99.90;;;;;;4994650;28;20064;-56
2021/01/06 05:21:53;;;;;;;10.82;5.40;;;2.60;99.90;;;;;;5011567;28;20288;-60
2021/01/06 05:24:35;;;;;;;12.40;6.60;;;2.70;99.90;;;;;;4997538;28;20046;-60
2021/01/06 05:27:12;;;;;;;10.48;5.38;;;2.60;99.90;;;;;;4991668;28;20034;-57
2021/01/06 05:29:46;;;;;;;9.13;4.88;;;2.70;99.90;;;;;;4992950;28;20049;-58
2021/01/06 05:32:23;;;;;;;11.50;5.65;;;2.60;99.90;;;;;;4993058;28;20073;-55
2021/01/06 05:35:06;;;;;;;12.00;5.80;;;2.40;99.90;;;;;;4993048;28;20045;-58
2021/01/06 05:37:32;;;;;;;10.10;4.85;;;2.50;99.90;;;;;;4991636;28;20069;-57
2021/01/06 05:40:11;;;;;;;12.70;6.15;;;2.50;99.90;;;;;;4992792;28;20101;-58
2021/01/06 05:42:53;;;;;;;12.25;5.80;;;2.50;99.90;;;;;;4991849;28;20022;-58
2021/01/06 05:45:25;;;;;;;15.15;5.75;;;2.50;99.90;;;;;;4992743;28;20049;-58
2021/01/06 05:48:03;;;;;;;15.57;6.53;;;2.50;99.90;;;;;;4969196;28;20046;-59
2021/01/06 05:50:41;;;;;;;13.00;6.18;;;2.60;99.90;;;;;;4991821;28;20081;-57
2021/01/06 05:53:24;;;;;;;13.25;6.20;;;2.60;99.90;;;;;;4991342;28;20030;-57
2021/01/06 05:55:52;;;;;;;10.52;5.68;;;2.60;99.90;;;;;;4992826;28;20034;-58
2021/01/06 05:58:29;;;;;;;11.57;5.32;;;2.60;99.90;;;;;;4994382;28;20050;-58
2021/01/06 06:01:46;;;;;;;14.13;6.20;;;2.60;99.90;;;;;;4979661;28;20045;-58
2021/01/06 06:04:49;;;;;;;16.45;6.70;;;2.50;99.90;;;;;;4996634;28;20034;-58
2021/01/06 06:07:42;;;;;;;12.82;5.90;;;2.50;99.90;;;;;;4996575;28;20038;-58
2021/01/06 06:10:39;;;;;;;13.18;6.47;;;2.50;99.90;;;;;;4996235;28;20045;-56
2021/01/06 06:13:29;;;;;;;16.00;7.03;;;2.40;99.90;;;;;;4995134;28;20065;-58
2021/01/06 06:16:04;;;;;;;15.57;6.30;;;2.50;99.90;;;;;;4996485;28;20084;-58
2021/01/06 06:18:49;;;;;;;14.57;6.47;;;2.50;99.90;;;;;;4996520;28;20129;-57
2021/01/06 06:21:52;;;;;;;16.95;7.40;;;2.60;99.90;;;;;;4995123;28;20042;-58
2021/01/06 06:24:55;;;;;;;14.93;6.07;;;2.60;99.90;;;;;;4995771;28;20082;-57
2021/01/06 06:28:02;;;;;;;14.48;5.90;;;2.50;99.90;;;;;;4995454;28;20038;-57
2021/01/06 06:30:51;;;;;;;14.45;6.32;;;2.50;99.90;;;;;;4994816;28;20058;-57
2021/01/06 06:33:33;;;;;;;16.33;6.45;;;2.60;99.90;;;;;;4996007;28;20085;-57
2021/01/06 06:36:09;;;;;;;18.95;6.38;;;2.40;99.90;;;;;;4996325;28;20031;-56
2021/01/06 06:38:45;;;;;;;12.05;5.88;;;2.40;99.90;;;;;;4995941;28;20042;-55
2021/01/06 06:41:33;;;;;;;13.75;6.32;;;2.50;99.90;;;;;;4994913;28;20031;-57
2021/01/06 06:44:33;;;;;;;15.10;6.28;;;2.50;99.90;;;;;;4996104;28;20110;-57
2021/01/06 06:47:16;;;;;;;17.58;8.05;;;2.50;99.90;;;;;;4996078;28;20061;-58
2021/01/06 06:50:15;;;;;;;14.18;6.30;;;2.50;99.90;;;;;;4995588;28;20033;-58
2021/01/06 06:53:03;;;;;;;20.52;6.85;;;2.40;99.90;;;;;;4995409;28;20066;-54
2021/01/06 06:55:45;;;;;;;14.75;6.72;;;2.40;99.90;;;;;;4995570;28;20042;-57
2021/01/06 06:58:51;;;;;;;11.27;5.93;;;2.40;99.90;;;;;;4994291;28;20034;-56
2021/01/06 07:01:24;;;;;;;15.07;6.63;;;2.40;99.90;;;;;;4995711;28;20065;-56
2021/01/06 07:04:02;;;;;;;16.15;6.78;;;2.40;99.90;;;;;;4994609;28;20027;-57
2021/01/06 07:06:29;;;;;;;14.27;6.38;;;2.40;99.90;;;;;;4970609;28;20125;-57
2021/01/06 07:08:59;;;;;;;18.23;6.88;;;2.40;99.90;;;;;;4994332;28;20034;-59
2021/01/06 07:11:44;;;;;;;18.00;6.95;;;2.40;99.90;;;;;;5010370;28;20045;-57
2021/01/06 07:14:57;;;;;;;11.60;6.63;;;2.40;99.90;;;;;;5009653;28;20036;-57
2021/01/06 07:17:41;;;;;;;16.35;7.15;;;2.40;99.90;;;;;;4994411;28;20042;-57
2021/01/06 07:20:12;;;;;;;14.13;6.28;;;2.50;99.90;;;;;;5010312;28;20035;-56
2021/01/06 07:22:52;;;;;;;15.27;6.28;;;2.50;99.90;;;;;;4995332;28;20077;-58
2021/01/06 07:25:18;;;;;;;17.13;6.50;;;2.40;99.90;;;;;;4993382;28;20050;-58
2021/01/06 07:28:12;;;;;;;14.75;6.30;;;2.40;99.90;;;;;;4994840;28;20518;-57
2021/01/06 07:30:46;;;;;;;14.50;6.10;;;2.40;99.90;;;;;;4994054;28;20038;-57
2021/01/06 07:33:27;;;;;;;13.20;5.95;;;2.50;99.90;;;;;;4994342;28;20030;-58
2021/01/06 07:35:53;;;;;;;12.43;6.10;;;2.50;99.90;;;;;;4994910;28;20074;-58
2021/01/06 07:38:20;;;;;;;14.68;6.45;;;2.50;99.90;;;;;;4994687;28;20619;-58
2021/01/06 07:40:55;;;;;;;13.25;5.82;;;2.50;99.90;;;;;;4994781;28;20026;-57
2021/01/06 07:43:30;;;;;;;10.55;5.53;;;2.50;99.90;;;;;;4994957;28;20026;-59
2021/01/06 07:46:01;;;;;;;13.18;6.13;;;2.60;99.90;;;;;;4994718;28;20038;-57
2021/01/06 07:49:08;;;;;;;14.82;6.47;;;2.50;99.90;;;;;;4994883;28;20125;-53
2021/01/06 07:52:04;;;;;;;13.40;5.75;;;2.60;99.90;;;;;;4993530;28;20077;-57
2021/01/06 07:54:42;;;;;;;12.43;5.60;;;2.60;99.90;;;;;;4993538;28;20027;-55
2021/01/06 07:57:44;;;;;;;16.85;6.90;;;2.50;99.90;;;;;;5009328;28;20030;-58
2021/01/06 08:00:13;;;;;;;13.68;6.88;;;2.60;99.90;;;;;;4991644;28;20109;-58
2021/01/06 08:03:05;;;;;;;15.43;6.72;;;2.50;99.90;;;;;;5009090;28;20034;-57
2021/01/06 08:05:34;;;;;;;12.70;6.50;;;2.50;99.90;;;;;;4994360;28;20041;-58
2021/01/06 08:08:14;;;;;;;14.27;5.93;;;2.60;99.90;;;;;;5009230;28;20066;-58
2021/01/06 08:10:47;;;;;;;15.55;6.32;;;2.70;99.90;;;;;;5008618;28;20038;-57
2021/01/06 08:13:19;;;;;;;15.98;6.22;;;2.70;99.90;;;;;;5009014;28;20034;-57
2021/01/06 08:15:53;;;;;;;11.77;6.53;;;2.70;99.90;;;;;;4993813;28;20125;-57
2021/01/06 08:18:43;;;;;;;13.77;6.00;;;2.60;99.90;;;;;;4994102;28;20057;-58
2021/01/06 08:21:29;;;;;;;13.70;6.88;;;2.60;99.90;;;;;;5007492;28;20031;-58
2021/01/06 08:24:22;;;;;;;13.45;5.78;;;2.80;99.90;;;;;;5008859;28;20054;-56
2021/01/06 08:26:50;;;;;;;11.60;5.55;;;2.80;99.90;;;;;;4993832;28;20057;-58
2021/01/06 08:29:18;;;;;;;12.95;6.18;;;2.70;99.90;;;;;;4993582;28;20038;-58
2021/01/06 08:31:47;;;;;;;14.20;6.13;;;2.70;99.90;;;;;;4993716;28;20034;-57
2021/01/06 08:34:26;;;;;;;13.45;6.00;;;2.80;99.90;;;;;;4993175;28;20093;-57
2021/01/06 08:37:11;;;;;;;13.18;5.85;;;2.80;99.90;;;;;;4991504;28;20037;-57
2021/01/06 08:39:58;;;;;;;13.35;6.20;;;2.80;99.90;;;;;;4992013;28;20120;-56
2021/01/06 08:42:41;;;;;;;13.73;6.38;;;2.80;99.90;;;;;;4993236;28;20072;-56
2021/01/06 08:45:20;;;;;;;13.07;5.88;;;2.90;99.90;;;;;;4992139;28;20030;-56
2021/01/06 08:47:46;;;;;;;13.77;6.35;;;2.90;99.90;;;;;;4991755;28;20037;-57
2021/01/06 08:50:15;;;;;;;14.13;7.07;;;2.90;99.90;;;;;;4993434;28;20089;-57
2021/01/06 08:52:48;;;;;;;13.88;7.22;;;3.00;99.90;;;;;;4993343;28;20027;-57
2021/01/06 08:55:31;;;;;;;15.43;7.10;;;3.00;99.90;;;;;;4993324;28;20037;-58
2021/01/06 08:58:12;;;;;;;17.05;6.80;;;3.00;99.90;;;;;;4992235;28;20026;-58
2021/01/06 09:00:43;;;;;;;16.08;7.20;;;3.00;99.90;;;;;;4993504;28;20037;-58
2021/01/06 09:03:18;;;;;;;12.18;5.93;;;3.00;99.90;;;;;;4993431;28;20038;-58
2021/01/06 09:06:07;;;;;;;12.90;5.85;;;3.00;99.90;;;;;;4991846;28;20038;-58
2021/01/06 09:08:36;;;;;;;17.67;7.32;;;2.90;99.90;;;;;;4991727;28;20026;-58
2021/01/06 09:11:20;;;;;;;16.05;7.30;;;3.00;99.90;;;;;;4992980;28;20034;-58
2021/01/06 09:14:11;;;;;;;16.13;7.63;;;3.00;99.90;;;;;;4993298;28;20125;-59
2021/01/06 09:16:53;;;;;;;20.00;6.03;;;3.00;99.90;;;;;;4992620;28;20073;-58
2021/01/06 09:19:49;;;;;;;15.80;6.43;;;3.00;99.90;;;;;;4991740;28;20134;-58
2021/01/06 09:22:17;;;;;;;14.60;6.68;;;3.10;99.90;;;;;;4992827;28;20036;-59
2021/01/06 09:24:44;;;;;;;19.00;7.82;;;3.10;99.90;;;;;;4991358;28;20057;-57
2021/01/06 09:27:34;;;;;;;16.25;6.97;;;3.00;99.90;;;;;;5008020;28;20112;-55
2021/01/06 09:30:27;;;;;;;17.83;7.18;;;3.10;99.90;;;;;;4992939;28;20076;-57
2021/01/06 09:32:56;;;;;;;19.92;6.97;;;3.10;99.90;;;;;;4998748;28;20034;-57
2021/01/06 09:35:33;;;;;;;16.80;7.93;;;3.00;99.90;;;;;;4992851;28;20081;-56
2021/01/06 09:38:04;;;;;;;17.30;7.45;;;3.10;99.90;;;;;;5007591;28;20084;-55
2021/01/06 09:40:32;;;;;;;17.17;7.30;;;3.10;99.90;;;;;;4992594;28;20034;-56
2021/01/06 09:43:07;;;;;;;17.88;7.63;;;3.00;99.90;;;;;;5007788;28;20042;-58
2021/01/06 09:45:34;;;;;;;16.23;7.55;;;3.20;99.90;;;;;;5006337;28;20045;-58
2021/01/06 09:48:05;;;;;;;14.52;6.90;;;3.20;99.90;;;;;;4990964;28;20030;-58
2021/01/06 09:50:37;;;;;;;16.77;7.07;;;3.20;99.90;;;;;;4991342;28;20034;-57
2021/01/06 09:53:06;;;;;;;;;;;3.30;99.90;;;;;;5007740;28;20030;-58
2021/01/06 09:55:33;;;;;;;13.85;6.38;;;3.40;99.90;;;;;;4991076;28;19914;-58
2021/01/06 09:58:23;;;;;;;14.50;6.72;;;3.50;99.90;;;;;;4991356;28;20034;-58
2021/01/06 10:01:27;;;;;;;17.13;6.45;;;3.50;99.90;;;;;;4980293;28;20058;-58
2021/01/06 10:03:55;;;;;;;14.80;7.07;;;3.60;99.90;;;;;;4981551;28;20038;-56
2021/01/06 10:06:50;;;;;;;17.73;7.57;;;3.40;99.90;;;;;;4991008;28;20042;-58
2021/01/06 10:09:40;;;;;;;16.20;6.55;;;3.60;99.90;;;;;;5002994;28;20081;-58
2021/01/06 10:12:54;;;;;;;19.75;6.32;;;3.70;99.90;;;;;;4992590;28;20049;-58
2021/01/06 10:15:57;;;;;;;12.88;6.45;;;3.70;99.90;;;;;;4992370;28;20034;-55
2021/01/06 10:18:50;;;;;;;17.50;8.02;;;3.70;99.90;;;;;;4991800;28;20072;-57
2021/01/06 10:21:42;;;;;;;30.75;14.88;;;3.60;99.90;;;;;;4991183;28;20118;-58
2021/01/06 10:24:13;;;;;;;17.58;7.68;;;3.60;99.90;;;;;;4990542;28;20027;-59
2021/01/06 10:27:28;;;;;;;14.25;7.28;;;3.70;99.90;;;;;;4992206;28;20038;-58
2021/01/06 10:29:57;;;;;;;14.50;7.07;;;3.80;99.90;;;;;;4992802;28;20092;-58
2021/01/06 10:32:47;;;;;;;14.27;6.85;;;3.80;99.90;;;;;;4990823;28;20042;-59
2021/01/06 10:35:27;;;;;;;16.67;7.78;;;3.80;99.90;;;;;;4992470;28;20041;-57
2021/01/06 10:37:54;;;;;;;24.37;7.30;;;4.00;99.90;;;;;;4992113;28;20045;-58
2021/01/06 10:40:37;;;;;;;18.35;8.15;;;4.00;99.90;;;;;;4991736;28;20282;-58
2021/01/06 10:43:31;;;;;;;14.45;7.55;;;3.90;99.90;;;;;;4993229;28;20121;-58
2021/01/06 10:45:57;;;;;;;16.35;7.40;;;4.00;99.90;;;;;;4995568;28;20038;-58
2021/01/06 10:48:45;;;;;;;16.15;7.32;;;4.00;99.90;;;;;;4995898;28;20061;-58
2021/01/06 10:51:56;;;;;;;18.08;7.82;;;4.00;99.90;;;;;;4995851;28;20049;-58
2021/01/06 10:54:49;;;;;;;15.88;7.43;;;3.90;99.90;;;;;;4995230;28;20038;-57
2021/01/06 10:57:15;;;;;;;16.05;6.78;;;4.10;99.90;;;;;;4994757;28;20031;-57
2021/01/06 11:00:15;;;;;;;12.75;6.25;;;4.20;99.90;;;;;;4995583;28;20132;-60
2021/01/06 11:03:07;;;;;;;15.27;7.50;;;4.10;99.90;;;;;;5010259;28;20125;-60
2021/01/06 11:05:46;;;;;;;14.73;7.63;;;4.20;99.90;;;;;;5009220;28;20062;-59
2021/01/06 11:08:47;;;;;;;21.25;8.05;;;4.00;99.90;;;;;;5009205;28;20049;-60
2021/01/06 11:11:51;;;;;;;18.05;8.15;;;3.90;99.90;;;;;;5007665;28;20085;-61
2021/01/06 11:14:41;;;;;;;17.45;6.75;;;4.10;99.90;;;;;;4994785;28;20101;-59
2021/01/06 11:17:19;;;;;;;12.65;6.10;;;4.10;99.90;;;;;;4995042;28;20121;-57
2021/01/06 11:19:59;;;;;;;12.65;6.28;;;4.10;99.90;;;;;;4998409;28;20155;-59
2021/01/06 11:22:43;;;;;;;18.17;6.97;;;4.00;99.90;;;;;;4995015;28;20049;-58
2021/01/06 11:25:48;;;;;;;14.80;6.65;;;4.00;99.90;;;;;;4975230;28;20309;-58
2021/01/06 11:29:11;;;;;;;12.48;6.63;;;4.10;99.90;;;;;;4975661;28;20054;-58
2021/01/06 11:32:22;;;;;;;13.27;6.00;;;4.10;99.90;;;;;;4987509;28;20110;-56
2021/01/06 11:35:14;;;;;;;14.25;6.88;;;4.20;99.90;;;;;;4974887;28;20042;-57
2021/01/06 11:37:43;;;;;;;18.48;7.45;;;4.10;99.90;;;;;;4987030;28;20186;-58
2021/01/06 11:40:50;;;;;;;15.65;6.88;;;4.00;99.90;;;;;;4989856;28;20493;-58
2021/01/06 11:43:54;;;;;;;11.15;5.75;;;4.00;99.90;;;;;;4979828;28;20050;-58
2021/01/06 11:46:25;;;;;;;12.90;6.93;;;4.10;99.90;;;;;;4995509;28;20038;-58
2021/01/06 11:49:10;;;;;;;12.93;6.47;;;4.10;99.90;;;;;;4996883;28;20046;-57
2021/01/06 11:51:38;;;;;;;12.40;6.15;;;4.10;99.90;;;;;;4994525;28;20084;-56
2021/01/06 11:54:28;;;;;;;14.40;6.38;;;4.20;99.90;;;;;;5005137;28;20034;-57
2021/01/06 11:57:26;;;;;;;10.77;5.38;;;4.20;99.90;;;;;;5014243;28;20034;-57
2021/01/06 12:00:15;;;;;;;10.48;5.68;;;4.30;99.90;;;;;;5013227;28;20069;-56
2021/01/06 12:03:13;;;;;;;18.05;6.45;;;4.30;99.90;;;;;;5013980;28;20034;-55
2021/01/06 12:06:35;;;;;;;14.27;6.68;;;4.20;99.90;;;;;;5008538;28;20042;-57
2021/01/06 12:09:17;;;;;;;14.68;6.30;;;4.40;99.90;;;;;;5013913;28;20030;-56
2021/01/06 12:11:52;;;;;;;13.00;5.95;;;4.40;99.90;;;;;;5012688;28;20044;-58
2021/01/06 12:14:38;;;;;;;13.25;6.18;;;4.30;99.90;;;;;;5013453;28;20096;-58
2021/01/06 12:17:50;;;;;;;10.30;5.07;;;4.30;99.90;;;;;;5012748;28;20115;-57
2021/01/06 12:20:22;;;;;;;15.02;6.95;;;4.40;99.90;;;;;;4991550;28;20096;-57
2021/01/06 12:23:15;;;;;;;11.38;5.40;;;4.50;99.90;;;;;;4991432;28;20042;-56
2021/01/06 12:25:47;;;;;;;14.50;5.55;;;4.40;99.90;;;;;;4990865;28;20087;-58
2021/01/06 12:28:28;;;;;;;11.55;5.65;;;4.50;99.90;;;;;;4991222;28;20030;-59
2021/01/06 12:31:25;;;;;;;16.83;5.57;;;4.30;99.90;;;;;;4991341;28;20066;-58
2021/01/06 12:34:00;;;;;;;11.73;6.07;;;4.20;99.90;;;;;;4991393;28;20034;-57
2021/01/06 12:36:34;;;;;;;12.88;5.95;;;4.40;99.90;;;;;;4991186;28;20066;-56
2021/01/06 12:39:33;;;;;;;10.52;5.20;;;4.50;99.90;;;;;;4975458;28;20045;-58
2021/01/06 12:42:43;;;;;;;9.75;4.75;;;4.40;99.90;;;;;;4975814;28;20037;-58
2021/01/06 12:45:25;;;;;;;12.25;5.35;;;4.40;99.90;;;;;;4991003;28;20129;-58
2021/01/06 12:48:19;;;;;;;12.45;5.05;;;4.40;99.90;;;;;;4991253;28;20037;-58
2021/01/06 12:51:08;;;;;;;11.88;5.47;;;4.30;99.90;;;;;;4989020;28;20068;-55
2021/01/06 12:53:42;;;;;;;10.88;5.75;;;4.30;99.90;;;;;;5012705;28;20030;-59
2021/01/06 12:56:42;;;;;;;10.15;5.35;;;4.30;99.90;;;;;;5011543;28;20034;-58
2021/01/06 12:59:20;;;;;;;10.18;5.35;;;4.30;99.90;;;;;;4992145;28;20026;-58
2021/01/06 13:01:50;;;;;;;10.05;5.05;;;4.30;99.90;;;;;;4993030;28;20039;-57
2021/01/06 13:04:30;;;;;;;11.53;5.40;;;4.20;99.90;;;;;;4992745;28;20035;-59
2021/01/06 13:07:14;;;;;;;10.63;5.88;;;4.30;99.90;;;;;;4991828;28;20308;-57
2021/01/06 13:10:08;;;;;;;12.05;5.63;;;4.30;99.90;;;;;;4991085;28;20093;-56
2021/01/06 13:12:45;;;;;;;10.52;4.38;;;4.40;99.90;;;;;;4991615;28;20041;-57
2021/01/06 13:15:42;;;;;;;9.77;4.00;;;4.30;99.90;;;;;;4991946;28;20034;-56
2021/01/06 13:18:17;;;;;;;13.07;4.95;;;4.30;99.90;;;;;;4992070;28;20038;-57
2021/01/06 13:21:19;;;;;;;9.43;4.45;;;4.30;99.90;;;;;;4992646;28;20030;-56
2021/01/06 13:23:54;;;;;;;9.38;4.53;;;4.30;99.90;;;;;;5002644;28;20034;-58
2021/01/06 13:26:25;;;;;;;7.65;4.53;;;4.40;99.90;;;;;;5012152;28;20046;-58
2021/01/06 13:29:00;;;;;;;8.40;4.20;;;4.40;99.90;;;;;;5011145;28;20117;-58
2021/01/06 13:31:33;;;;;;;7.45;4.15;;;4.50;99.90;;;;;;5012368;28;20383;-57
2021/01/06 13:34:31;;;;;;;9.15;4.45;;;4.50;99.90;;;;;;5012399;28;20116;-58
2021/01/06 13:37:22;;;;;;;8.63;4.45;;;4.50;99.90;;;;;;5012291;28;20045;-56
2021/01/06 13:40:07;;;;;;;7.20;4.40;;;4.40;99.90;;;;;;5010443;28;20041;-56
2021/01/06 13:42:48;;;;;;;6.78;3.95;;;4.50;99.90;;;;;;5011133;28;20046;-57
2021/01/06 13:45:14;;;;;;;7.72;3.95;;;4.40;99.90;;;;;;5012071;28;20046;-56
2021/01/06 13:47:48;;;;;;;10.18;4.75;;;4.40;99.90;;;;;;5012043;28;20087;-56
2021/01/06 13:50:17;;;;;;;9.25;4.03;;;4.40;99.90;;;;;;5011034;28;20113;-57
2021/01/06 13:53:12;;;;;;;9.05;4.82;;;4.40;99.90;;;;;;5012018;28;20034;-57
2021/01/06 13:56:01;;;;;;;10.40;4.53;;;4.50;99.90;;;;;;4986300;28;20056;-58
2021/01/06 13:58:42;;;;;;;7.70;3.75;;;4.50;99.90;;;;;;5010731;28;20033;-58